createdAt,value
2018-08-14T00:00:31.427Z,19.07
2018-08-14T00:03:30.111Z,20.23
2018-08-14T00:06:28.057Z,18.27
2018-08-14T00:09:26.268Z,18.67
2018-08-14T00:12:23.536Z,20.60
2018-08-14T00:15:22.588Z,21.33
2018-08-14T00:18:20.471Z,16.63
2018-08-14T00:21:17.836Z,16.27
2018-08-14T00:24:15.906Z,14.57
2018-08-14T00:27:13.922Z,16.03
2018-08-14T00:30:11.368Z,20.77
2018-08-14T00:33:09.004Z,17.57
2018-08-14T00:36:06.406Z,19.73
2018-08-14T00:39:03.363Z,22.33
2018-08-14T00:42:01.311Z,17.57
2018-08-14T00:44:58.475Z,19.67
2018-08-14T00:47:55.554Z,19.57
2018-08-14T00:50:59.759Z,17.73
2018-08-14T00:53:57.073Z,18.70
2018-08-14T00:56:54.363Z,24.83
2018-08-14T00:59:52.487Z,22.73
2018-08-14T01:02:50.604Z,18.97
2018-08-14T01:05:47.867Z,21.37
2018-08-14T01:08:45.148Z,18.13
2018-08-14T01:11:42.407Z,19.87
2018-08-14T01:14:40.333Z,19.97
2018-08-14T01:17:38.320Z,20.23
2018-08-14T01:20:38.167Z,19.60
2018-08-14T01:23:36.147Z,18.43
2018-08-14T01:26:34.028Z,18.97
2018-08-14T01:29:33.228Z,19.43
2018-08-14T01:32:30.216Z,21.50
2018-08-14T01:35:27.629Z,19.53
2018-08-14T01:38:25.048Z,18.07
2018-08-14T01:41:22.237Z,17.47
2018-08-14T01:44:19.596Z,17.40
2018-08-14T01:47:17.511Z,17.90
2018-08-14T01:50:15.481Z,18.10
2018-08-14T01:53:12.577Z,19.13
2018-08-14T01:56:09.746Z,17.77
2018-08-14T01:59:07.646Z,19.23
2018-08-14T02:02:05.603Z,17.30
2018-08-14T02:05:03.447Z,16.90
2018-08-14T02:08:01.379Z,17.07
2018-08-14T02:10:58.732Z,19.93
2018-08-14T02:13:56.839Z,16.63
2018-08-14T02:16:54.805Z,18.37
2018-08-14T02:19:52.337Z,19.50
2018-08-14T02:22:50.211Z,18.23
2018-08-14T02:25:48.341Z,18.37
2018-08-14T02:28:45.326Z,16.37
2018-08-14T02:31:43.265Z,18.77
2018-08-14T02:34:41.167Z,17.97
2018-08-14T02:37:39.135Z,19.53
2018-08-14T02:40:38.272Z,18.97
2018-08-14T02:43:36.308Z,20.13
2018-08-14T02:46:33.348Z,19.67
2018-08-14T02:49:30.802Z,20.63
2018-08-14T02:52:29.023Z,23.07
2018-08-14T02:55:29.620Z,24.57
2018-08-14T02:58:26.891Z,20.70
2018-08-14T03:01:24.957Z,23.23
2018-08-14T03:04:21.967Z,22.70
2018-08-14T03:07:19.957Z,23.60
2018-08-14T03:10:18.435Z,22.90
2018-08-14T03:13:16.644Z,24.60
2018-08-14T03:16:14.822Z,24.73
2018-08-14T03:19:11.887Z,24.30
2018-08-14T03:22:10.012Z,23.63
2018-08-14T03:25:08.167Z,29.07
2018-08-14T03:28:05.991Z,24.73
2018-08-14T03:31:02.984Z,27.00
2018-08-14T03:34:01.048Z,26.53
2018-08-14T03:36:58.435Z,27.30
2018-08-14T03:39:55.756Z,30.37
2018-08-14T03:42:54.769Z,28.23
2018-08-14T03:45:52.736Z,33.93
2018-08-14T03:48:50.480Z,36.37
2018-08-14T03:51:47.674Z,35.67
2018-08-14T03:54:45.427Z,37.97
2018-08-14T03:57:42.908Z,37.03
2018-08-14T04:00:42.895Z,47.07
2018-08-14T04:03:40.880Z,40.53
2018-08-14T04:06:37.932Z,41.40
2018-08-14T04:09:35.191Z,44.13
2018-08-14T04:12:33.104Z,48.23
2018-08-14T04:15:30.082Z,45.10
2018-08-14T04:18:27.868Z,44.87
2018-08-14T04:21:25.864Z,43.53
2018-08-14T04:24:23.302Z,46.07
2018-08-14T04:27:20.174Z,45.67
2018-08-14T04:30:20.191Z,48.27
2018-08-14T04:33:18.056Z,40.60
2018-08-14T04:36:15.128Z,41.83
2018-08-14T04:39:12.868Z,37.90
2018-08-14T04:42:10.868Z,39.53
2018-08-14T04:45:07.924Z,38.07
2018-08-14T04:48:05.846Z,42.10
2018-08-14T04:51:02.875Z,41.43
2018-08-14T04:54:00.972Z,44.20
2018-08-14T04:56:58.694Z,44.70
2018-08-14T04:59:55.737Z,45.40
2018-08-14T05:03:00.764Z,42.77
2018-08-14T05:05:58.324Z,52.20
2018-08-14T05:08:56.182Z,47.73
2018-08-14T05:11:53.567Z,50.73
2018-08-14T05:14:50.736Z,49.03
2018-08-14T05:17:48.132Z,46.87
2018-08-14T05:20:45.852Z,43.73
2018-08-14T05:23:43.107Z,42.33
2018-08-14T05:26:41.187Z,37.90
2018-08-14T05:29:38.575Z,36.03
2018-08-14T05:32:36.614Z,33.43
2018-08-14T05:35:33.775Z,38.53
2018-08-14T05:38:38.801Z,32.67
2018-08-14T05:41:36.204Z,36.37
2018-08-14T05:44:40.176Z,44.97
2018-08-14T05:47:38.072Z,48.03
2018-08-14T05:50:36.939Z,49.30
2018-08-14T05:53:34.722Z,46.87
2018-08-14T05:56:32.687Z,46.50
2018-08-14T05:59:29.960Z,49.03
2018-08-14T06:02:27.411Z,41.33
2018-08-14T06:05:25.608Z,39.00
2018-08-14T06:08:23.448Z,40.23
2018-08-14T06:11:20.503Z,50.87
2018-08-14T06:14:17.695Z,55.47
2018-08-14T06:17:14.926Z,52.63
2018-08-14T06:20:12.212Z,59.27
2018-08-14T06:23:10.104Z,50.87
2018-08-14T06:26:07.348Z,57.97
2018-08-14T06:29:04.765Z,50.60
2018-08-14T06:32:02.231Z,52.23
2018-08-14T06:34:59.411Z,51.33
2018-08-14T06:37:57.367Z,53.97
2018-08-14T06:40:54.675Z,57.00
2018-08-14T06:43:52.581Z,47.90
2018-08-14T06:46:49.737Z,46.13
2018-08-14T06:49:47.098Z,46.60
2018-08-14T06:52:44.914Z,48.30
2018-08-14T06:55:42.961Z,43.07
2018-08-14T06:58:41.238Z,45.90
2018-08-14T07:01:38.815Z,39.30
2018-08-14T07:04:36.624Z,34.97
2018-08-14T07:07:33.543Z,35.37
2018-08-14T07:10:32.552Z,34.03
2018-08-14T07:13:30.085Z,34.13
2018-08-14T07:16:27.663Z,39.37
2018-08-14T07:19:25.915Z,39.53
2018-08-14T07:22:23.239Z,37.47
2018-08-14T07:25:21.225Z,35.57
2018-08-14T07:28:18.800Z,36.37
2018-08-14T07:31:16.172Z,41.40
2018-08-14T07:34:13.438Z,40.97
2018-08-14T07:37:11.543Z,41.40
2018-08-14T07:40:09.643Z,39.93
2018-08-14T07:43:07.622Z,37.23
2018-08-14T07:49:09.695Z,35.30
2018-08-14T07:52:07.031Z,35.90
2018-08-14T07:55:04.404Z,34.40
2018-08-14T07:58:02.264Z,30.73
2018-08-14T08:01:00.259Z,29.27
2018-08-14T08:03:58.167Z,26.17
2018-08-14T08:06:56.073Z,21.63
2018-08-14T08:09:53.414Z,18.60
2018-08-14T08:12:51.624Z,19.83
2018-08-14T08:15:48.996Z,17.90
2018-08-14T08:18:46.257Z,15.23
2018-08-14T08:21:43.186Z,14.80
2018-08-14T08:24:40.502Z,14.30
2018-08-14T08:27:38.334Z,14.23
2018-08-14T08:30:36.104Z,14.93
2018-08-14T08:33:33.263Z,12.50
2018-08-14T08:36:31.075Z,15.30
2018-08-14T08:39:28.807Z,12.07
2018-08-14T08:42:26.052Z,9.50
2018-08-14T08:45:23.200Z,12.10
2018-08-14T08:48:30.189Z,10.23
2018-08-14T08:51:28.371Z,8.30
2018-08-14T08:54:26.264Z,7.70
2018-08-14T08:57:31.256Z,9.53
2018-08-14T09:00:30.360Z,8.20
2018-08-14T09:03:28.304Z,7.73
2018-08-14T09:06:25.355Z,6.33
2018-08-14T09:09:23.584Z,7.10
2018-08-14T09:12:20.964Z,6.23
2018-08-14T09:15:19.035Z,5.77
2018-08-14T09:18:16.517Z,4.83
2018-08-14T09:21:13.707Z,6.03
2018-08-14T09:24:10.800Z,4.87
2018-08-14T09:27:08.577Z,6.80
2018-08-14T09:30:05.868Z,5.10
2018-08-14T09:33:03.543Z,6.47
2018-08-14T09:36:00.545Z,5.27
2018-08-14T09:38:57.552Z,4.30
2018-08-14T09:41:54.772Z,4.80
2018-08-14T09:44:52.711Z,2.67
2018-08-14T09:47:50.266Z,4.87
2018-08-14T09:50:48.253Z,4.47
2018-08-14T09:53:46.242Z,4.23
2018-08-14T09:56:43.635Z,3.40
2018-08-14T09:59:41.653Z,4.50
2018-08-14T10:02:45.752Z,7.67
2018-08-14T10:05:49.575Z,6.27
2018-08-14T10:08:46.611Z,3.33
2018-08-14T10:11:43.666Z,3.30
2018-08-14T10:14:46.738Z,5.10
2018-08-14T10:17:44.591Z,2.57
2018-08-14T10:20:41.643Z,4.13
2018-08-14T10:23:39.893Z,5.03
2018-08-14T10:26:36.858Z,4.17
2018-08-14T10:29:34.728Z,6.67
2018-08-14T10:32:32.991Z,5.53
2018-08-14T10:35:30.980Z,4.10
2018-08-14T10:38:29.060Z,3.93
2018-08-14T10:41:26.301Z,3.87
2018-08-14T10:44:23.376Z,5.00
2018-08-14T10:47:20.510Z,3.60
2018-08-14T10:50:17.780Z,5.23
2018-08-14T10:53:15.732Z,4.13
2018-08-14T10:56:13.683Z,3.73
2018-08-14T10:59:11.587Z,3.87
2018-08-14T11:02:16.498Z,3.80
2018-08-14T11:05:14.380Z,4.43
2018-08-14T11:08:11.541Z,3.10
2018-08-14T11:11:13.763Z,2.57
2018-08-14T11:14:10.864Z,4.50
2018-08-14T11:17:08.234Z,3.20
2018-08-14T11:20:05.284Z,5.60
2018-08-14T11:23:03.567Z,5.43
2018-08-14T11:26:01.637Z,3.27
2018-08-14T11:28:59.653Z,3.53
2018-08-14T11:31:57.701Z,2.67
2018-08-14T11:34:55.052Z,3.97
2018-08-14T11:37:53.023Z,2.03
2018-08-14T11:40:50.218Z,5.20
2018-08-14T11:43:48.279Z,3.87
2018-08-14T11:46:46.006Z,5.43
2018-08-14T11:52:47.415Z,3.73
2018-08-14T11:55:45.467Z,2.87
2018-08-14T11:58:43.258Z,3.77
2018-08-14T12:01:40.520Z,4.27
2018-08-14T12:04:38.587Z,2.10
2018-08-14T12:07:36.846Z,6.03
2018-08-14T12:10:36.722Z,1.70
2018-08-14T12:13:33.987Z,1.67
2018-08-14T12:16:31.327Z,3.47
2018-08-14T12:19:29.522Z,2.57
2018-08-14T12:22:27.643Z,2.93
2018-08-14T12:25:27.583Z,4.40
2018-08-14T12:28:25.567Z,3.63
2018-08-14T12:31:23.743Z,2.83
2018-08-14T12:34:21.508Z,4.17
2018-08-14T12:37:19.379Z,2.83
2018-08-14T12:40:17.402Z,3.97
2018-08-14T12:43:15.316Z,3.07
2018-08-14T12:46:13.287Z,5.73
2018-08-14T12:49:11.348Z,4.33
2018-08-14T12:52:08.717Z,2.13
2018-08-14T12:55:06.405Z,4.63
2018-08-14T12:58:04.260Z,3.80
2018-08-14T13:01:02.136Z,5.47
2018-08-14T13:03:59.335Z,2.57
2018-08-14T13:06:57.307Z,3.90
2018-08-14T13:09:55.271Z,1.83
2018-08-14T13:12:52.491Z,3.93
2018-08-14T13:15:50.455Z,3.23
2018-08-14T13:18:49.227Z,8.07
2018-08-14T13:21:47.467Z,4.50
2018-08-14T13:24:45.499Z,2.93
2018-08-14T13:27:50.716Z,5.07
2018-08-14T13:30:48.134Z,4.27
2018-08-14T13:33:45.239Z,4.50
2018-08-14T13:36:42.345Z,2.67
2018-08-14T13:39:40.398Z,2.87
2018-08-14T13:42:38.348Z,3.40
2018-08-14T13:45:36.390Z,5.77
2018-08-14T13:48:34.571Z,2.27
2018-08-14T13:51:32.479Z,2.70
2018-08-14T13:54:29.707Z,2.90
2018-08-14T13:57:26.675Z,4.00
2018-08-14T14:00:26.635Z,1.90
2018-08-14T14:03:23.828Z,1.77
2018-08-14T14:06:20.945Z,3.13
2018-08-14T14:09:20.214Z,1.93
2018-08-14T14:12:26.414Z,4.00
2018-08-14T14:15:28.794Z,6.37
2018-08-14T14:18:26.866Z,2.50
2018-08-14T14:21:25.034Z,7.30
2018-08-14T14:24:22.201Z,3.00
2018-08-14T14:27:19.368Z,2.43
2018-08-14T14:30:16.424Z,4.70
2018-08-14T14:33:13.866Z,3.33
2018-08-14T14:36:11.025Z,3.67
2018-08-14T14:39:08.332Z,5.07
2018-08-14T14:42:05.349Z,5.37
2018-08-14T14:45:03.423Z,3.77
2018-08-14T14:48:00.659Z,3.47
2018-08-14T14:50:58.647Z,3.23
2018-08-14T14:53:55.981Z,2.80
2018-08-14T14:56:53.935Z,4.37
2018-08-14T14:59:51.254Z,2.23
2018-08-14T15:02:49.219Z,2.70
2018-08-14T15:05:46.978Z,5.40
2018-08-14T15:08:44.025Z,6.93
2018-08-14T15:11:42.156Z,3.30
2018-08-14T15:14:39.265Z,3.70
2018-08-14T15:17:36.627Z,6.20
2018-08-14T15:20:39.556Z,7.83
2018-08-14T15:23:37.687Z,3.70
2018-08-14T15:26:35.569Z,4.50
2018-08-14T15:29:33.355Z,4.37
2018-08-14T15:32:31.012Z,3.77
2018-08-14T15:35:28.097Z,4.30
2018-08-14T15:38:26.012Z,6.77
2018-08-14T15:41:24.107Z,5.07
2018-08-14T15:44:21.199Z,3.87
2018-08-14T15:47:18.213Z,4.33
2018-08-14T15:50:16.068Z,6.13
2018-08-14T15:53:14.075Z,3.60
2018-08-14T15:56:12.319Z,4.10
2018-08-14T15:59:09.618Z,5.30
2018-08-14T16:02:08.683Z,2.93
2018-08-14T16:05:05.904Z,3.37
2018-08-14T16:08:03.935Z,4.27
2018-08-14T16:11:01.219Z,6.07
2018-08-14T16:13:59.033Z,3.70
2018-08-14T16:16:56.917Z,2.40
2018-08-14T16:19:54.202Z,4.67
2018-08-14T16:22:52.215Z,3.33
2018-08-14T16:25:49.443Z,3.90
2018-08-14T16:28:46.596Z,3.23
2018-08-14T16:31:44.616Z,3.67
2018-08-14T16:34:41.908Z,4.23
2018-08-14T16:37:39.676Z,2.30
2018-08-14T16:40:37.861Z,4.53
2018-08-14T16:43:35.709Z,5.07
2018-08-14T16:46:33.804Z,3.23
2018-08-14T16:49:31.786Z,4.17
2018-08-14T16:52:29.032Z,4.90
2018-08-14T16:55:26.590Z,2.47
2018-08-14T16:58:23.742Z,5.27
2018-08-14T17:01:21.849Z,9.50
2018-08-14T17:04:20.008Z,4.07
2018-08-14T17:07:17.167Z,4.17
2018-08-14T17:10:14.380Z,5.93
2018-08-14T17:13:12.503Z,4.50
2018-08-14T17:16:10.366Z,5.00
2018-08-14T17:19:08.443Z,7.10
2018-08-14T17:22:06.448Z,4.83
2018-08-14T17:25:04.376Z,4.03
2018-08-14T17:28:02.683Z,3.83
2018-08-14T17:31:00.221Z,4.63
2018-08-14T17:33:57.528Z,1.67
2018-08-14T17:36:54.659Z,3.93
2018-08-14T17:39:51.927Z,2.13
2018-08-14T17:42:49.255Z,2.47
2018-08-14T17:45:47.619Z,4.27
2018-08-14T17:48:44.903Z,3.97
2018-08-14T17:51:42.768Z,4.07
2018-08-14T17:54:40.841Z,3.83
2018-08-14T17:57:37.923Z,5.17
2018-08-14T18:00:39.070Z,4.73
2018-08-14T18:03:36.876Z,4.73
2018-08-14T18:06:34.984Z,5.03
2018-08-14T18:09:33.140Z,3.83
2018-08-14T18:12:30.326Z,2.17
2018-08-14T18:15:29.339Z,3.37
2018-08-14T18:18:27.440Z,4.00
2018-08-14T18:21:24.967Z,1.60
2018-08-14T18:24:22.755Z,5.00
2018-08-14T18:27:27.750Z,2.37
2018-08-14T18:30:26.800Z,2.83
2018-08-14T18:33:25.046Z,3.80
2018-08-14T18:36:22.833Z,4.10
2018-08-14T18:39:20.944Z,4.40
2018-08-14T18:42:18.856Z,4.93
2018-08-14T18:45:15.951Z,3.03
2018-08-14T18:48:13.180Z,5.63
2018-08-14T18:51:10.472Z,4.47
2018-08-14T18:54:08.636Z,3.40
2018-08-14T18:57:05.971Z,2.20
2018-08-14T19:00:04.175Z,3.27
2018-08-14T19:03:02.433Z,2.77
2018-08-14T19:06:00.516Z,3.93
2018-08-14T19:08:57.777Z,4.53
2018-08-14T19:11:55.452Z,2.67
2018-08-14T19:14:53.059Z,1.73
2018-08-14T19:17:51.959Z,4.10
2018-08-14T19:20:50.008Z,3.93
2018-08-14T19:23:47.271Z,6.23
2018-08-14T19:26:44.441Z,4.60
2018-08-14T19:29:41.548Z,3.90
2018-08-14T19:32:39.693Z,3.13
2018-08-14T19:35:36.786Z,1.90
2018-08-14T19:38:33.828Z,4.73
2018-08-14T19:41:31.408Z,3.17
2018-08-14T19:44:28.544Z,6.20
2018-08-14T19:47:26.388Z,3.17
2018-08-14T19:50:24.642Z,2.33
2018-08-14T19:53:21.876Z,4.20
2018-08-14T19:56:19.136Z,4.00
2018-08-14T19:59:17.010Z,4.67
2018-08-14T20:02:14.266Z,2.10
2018-08-14T20:05:11.817Z,3.40
2018-08-14T20:08:09.389Z,3.23
2018-08-14T20:11:06.566Z,3.63
2018-08-14T20:14:04.551Z,3.97
2018-08-14T20:17:02.268Z,5.33
2018-08-14T20:20:00.271Z,3.47
2018-08-14T20:22:58.204Z,3.27
2018-08-14T20:25:55.406Z,4.70
2018-08-14T20:28:53.313Z,4.40
2018-08-14T20:31:50.523Z,3.13
2018-08-14T20:34:47.943Z,4.53
2018-08-14T20:37:45.219Z,7.17
2018-08-14T20:40:42.281Z,3.90
2018-08-14T20:43:39.912Z,3.33
2018-08-14T20:46:38.129Z,4.70
2018-08-14T20:49:35.887Z,3.00
2018-08-14T20:52:33.878Z,5.03
2018-08-14T20:55:34.865Z,4.27
2018-08-14T20:58:32.687Z,3.63
2018-08-14T21:01:30.622Z,2.40
2018-08-14T21:04:28.492Z,6.70
2018-08-14T21:07:26.385Z,2.60
2018-08-14T21:10:24.372Z,5.70
2018-08-14T21:13:22.473Z,2.47
2018-08-14T21:16:25.845Z,2.23
2018-08-14T21:19:23.850Z,2.63
2018-08-14T21:22:21.098Z,7.83
2018-08-14T21:25:19.992Z,3.10
2018-08-14T21:28:18.001Z,3.23
2018-08-14T21:31:15.305Z,4.23
2018-08-14T21:34:12.909Z,7.07
2018-08-14T21:37:10.131Z,3.57
2018-08-14T21:40:07.697Z,5.17
2018-08-14T21:43:05.645Z,4.10
2018-08-14T21:46:03.628Z,2.17
2018-08-14T21:49:01.006Z,8.27
2018-08-14T21:51:58.936Z,3.67
2018-08-14T21:54:56.677Z,2.90
2018-08-14T21:57:54.749Z,2.60
2018-08-14T22:01:30.999Z,3.17
2018-08-14T22:04:28.311Z,3.07
2018-08-14T22:07:25.816Z,1.77
2018-08-14T22:10:23.887Z,4.50
2018-08-14T22:13:21.137Z,2.87
2018-08-14T22:16:18.304Z,3.03
2018-08-14T22:19:15.457Z,4.37
2018-08-14T22:22:12.532Z,3.23
2018-08-14T22:25:10.020Z,3.60
2018-08-14T22:28:07.354Z,2.80
2018-08-14T22:31:05.402Z,4.00
2018-08-14T22:34:02.566Z,2.23
2018-08-14T22:37:00.355Z,2.23
2018-08-14T22:39:58.387Z,5.37
2018-08-14T22:42:55.884Z,5.57
2018-08-14T22:45:52.876Z,3.17
2018-08-14T22:48:49.884Z,4.97
2018-08-14T22:51:46.799Z,1.50
2018-08-14T22:54:44.800Z,5.13
2018-08-14T22:57:41.986Z,2.47
2018-08-14T23:00:39.771Z,4.50
2018-08-14T23:03:37.421Z,1.50
2018-08-14T23:06:35.436Z,3.03
2018-08-14T23:09:32.527Z,4.20
2018-08-14T23:12:29.571Z,2.77
2018-08-14T23:15:28.299Z,2.40
2018-08-14T23:18:26.459Z,2.53
2018-08-14T23:21:24.100Z,2.77
2018-08-14T23:24:22.272Z,3.70
2018-08-14T23:27:20.166Z,4.20
2018-08-14T23:30:19.084Z,3.10
2018-08-14T23:33:16.950Z,2.93
2018-08-14T23:36:15.100Z,2.90
2018-08-14T23:39:13.158Z,4.07
2018-08-14T23:42:11.105Z,1.40
2018-08-14T23:45:09.316Z,2.97
2018-08-14T23:48:06.600Z,2.40
2018-08-14T23:51:03.726Z,5.33
2018-08-14T23:54:01.018Z,2.60
2018-08-14T23:56:58.855Z,2.57
2018-08-14T23:59:57.044Z,4.87
